createdAt,value
2018-09-19T00:01:49.976Z,1.20
2018-09-19T00:04:53.268Z,1.63
2018-09-19T00:07:56.374Z,1.77
2018-09-19T00:10:59.467Z,1.40
2018-09-19T00:14:02.588Z,1.53
2018-09-19T00:17:05.884Z,2.20
2018-09-19T00:20:09.140Z,1.80
2018-09-19T00:23:12.271Z,2.30
2018-09-19T00:26:15.539Z,2.10
2018-09-19T00:29:18.813Z,2.23
2018-09-19T00:32:21.988Z,2.13
2018-09-19T00:35:25.162Z,1.77
2018-09-19T00:38:28.410Z,1.93
2018-09-19T00:41:31.548Z,2.17
2018-09-19T00:44:34.708Z,1.80
2018-09-19T00:47:37.830Z,1.73
2018-09-19T00:50:41.084Z,2.00
2018-09-19T00:53:44.364Z,1.73
2018-09-19T00:56:47.590Z,2.10
2018-09-19T00:59:50.728Z,2.30
2018-09-19T01:02:53.990Z,1.90
2018-09-19T01:05:57.099Z,2.00
2018-09-19T01:09:00.299Z,1.87
2018-09-19T01:12:03.517Z,2.00
2018-09-19T01:15:06.913Z,2.17
2018-09-19T01:18:10.283Z,2.20
2018-09-19T01:21:13.436Z,1.87
2018-09-19T01:24:16.706Z,2.07
2018-09-19T01:27:19.880Z,1.80
2018-09-19T01:30:22.952Z,2.10
2018-09-19T01:33:26.057Z,1.93
2018-09-19T01:36:29.217Z,1.70
2018-09-19T01:39:32.366Z,2.43
2018-09-19T01:42:35.512Z,3.00
2018-09-19T01:45:38.857Z,3.00
2018-09-19T01:48:41.974Z,2.30
2018-09-19T01:51:45.182Z,2.77
2018-09-19T01:54:48.325Z,3.43
2018-09-19T01:57:51.465Z,2.30
2018-09-19T02:00:54.622Z,2.80
2018-09-19T02:03:57.809Z,2.67
2018-09-19T02:07:00.984Z,2.50
2018-09-19T02:10:04.267Z,2.33
2018-09-19T02:13:07.497Z,2.20
2018-09-19T02:16:10.672Z,2.00
2018-09-19T02:19:13.918Z,2.50
2018-09-19T02:22:17.066Z,2.17
2018-09-19T02:25:20.223Z,2.47
2018-09-19T02:28:23.452Z,3.47
2018-09-19T02:31:26.843Z,3.00
2018-09-19T02:34:30.166Z,3.33
2018-09-19T02:37:33.337Z,2.80
2018-09-19T02:40:36.509Z,2.90
2018-09-19T02:43:39.780Z,2.77
2018-09-19T02:46:43.155Z,3.30
2018-09-19T02:49:46.538Z,2.77
2018-09-19T02:52:55.466Z,2.47
2018-09-19T02:55:58.558Z,2.87
2018-09-19T02:59:01.637Z,3.13
2018-09-19T03:02:04.787Z,2.97
2018-09-19T03:05:08.119Z,3.20
2018-09-19T03:08:11.179Z,3.13
2018-09-19T03:11:14.598Z,3.23
2018-09-19T03:14:17.904Z,2.90
2018-09-19T03:17:21.322Z,3.30
2018-09-19T03:20:24.355Z,2.80
2018-09-19T03:23:27.559Z,2.87
2018-09-19T03:26:30.742Z,3.30
2018-09-19T03:29:33.985Z,2.80
2018-09-19T03:32:37.051Z,2.67
2018-09-19T03:35:40.275Z,2.87
2018-09-19T03:38:43.438Z,3.63
2018-09-19T03:41:46.719Z,3.23
2018-09-19T03:44:49.888Z,3.47
2018-09-19T03:47:53.004Z,3.53
2018-09-19T03:50:56.214Z,2.87
2018-09-19T03:53:59.690Z,3.50
2018-09-19T03:57:03.052Z,2.97
2018-09-19T04:00:06.655Z,3.10
2018-09-19T04:03:09.758Z,3.30
2018-09-19T04:06:12.872Z,3.27
2018-09-19T04:09:16.010Z,2.80
2018-09-19T04:12:19.190Z,3.17
2018-09-19T04:15:22.318Z,3.20
2018-09-19T04:18:25.493Z,3.60
2018-09-19T04:21:28.581Z,3.30
2018-09-19T04:24:31.657Z,3.37
2018-09-19T04:27:34.802Z,3.27
2018-09-19T04:30:37.937Z,3.23
2018-09-19T04:33:41.048Z,3.27
2018-09-19T04:36:44.339Z,3.30
2018-09-19T04:39:47.460Z,3.63
2018-09-19T04:42:50.682Z,3.43
2018-09-19T04:45:53.766Z,3.40
2018-09-19T04:48:56.814Z,3.43
2018-09-19T04:52:00.966Z,3.30
2018-09-19T04:55:05.901Z,3.63
2018-09-19T04:58:08.984Z,3.57
2018-09-19T05:01:12.064Z,3.53
2018-09-19T05:04:15.122Z,3.63
2018-09-19T05:07:18.298Z,3.30
2018-09-19T05:10:23.552Z,3.97
2018-09-19T05:13:26.735Z,4.03
2018-09-19T05:16:29.970Z,3.70
2018-09-19T05:19:33.077Z,3.47
2018-09-19T05:22:36.175Z,4.03
2018-09-19T05:25:39.330Z,3.80
2018-09-19T05:28:42.455Z,3.80
2018-09-19T05:31:45.568Z,3.80
2018-09-19T05:34:49.168Z,4.47
2018-09-19T05:37:52.338Z,3.80
2018-09-19T05:40:55.467Z,3.77
2018-09-19T05:43:58.605Z,4.10
2018-09-19T05:47:01.709Z,3.70
2018-09-19T05:50:04.789Z,3.80
2018-09-19T05:53:08.146Z,4.27
2018-09-19T05:56:11.339Z,3.83
2018-09-19T05:59:14.448Z,4.10
2018-09-19T06:02:17.514Z,4.13
2018-09-19T06:05:20.714Z,3.67
2018-09-19T06:08:23.849Z,6.93
2018-09-19T06:11:26.953Z,5.27
2018-09-19T06:14:30.173Z,4.40
2018-09-19T06:17:33.461Z,4.90
2018-09-19T06:20:36.655Z,4.33
2018-09-19T06:23:39.750Z,3.30
2018-09-19T06:26:42.946Z,7.10
2018-09-19T06:29:46.317Z,5.60
2018-09-19T06:36:04.218Z,5.90
2018-09-19T06:39:10.132Z,4.60
2018-09-19T06:42:13.244Z,4.33
2018-09-19T06:45:16.378Z,4.80
2018-09-19T06:48:19.552Z,5.37
2018-09-19T06:51:22.774Z,4.80
2018-09-19T06:54:25.905Z,4.90
2018-09-19T06:57:29.036Z,5.33
2018-09-19T07:00:32.273Z,4.50
2018-09-19T07:03:35.572Z,4.60
2018-09-19T07:06:38.850Z,5.07
2018-09-19T07:09:42.026Z,3.93
2018-09-19T07:12:45.167Z,4.80
2018-09-19T07:15:48.296Z,4.53
2018-09-19T07:18:51.427Z,4.73
2018-09-19T07:21:54.453Z,4.27
2018-09-19T07:24:57.628Z,4.40
2018-09-19T07:28:00.746Z,4.63
2018-09-19T07:31:04.028Z,5.83
2018-09-19T07:34:07.157Z,4.70
2018-09-19T07:37:10.409Z,5.07
2018-09-19T07:40:13.642Z,4.60
2018-09-19T07:43:16.894Z,4.33
2018-09-19T07:46:20.103Z,4.20
2018-09-19T07:49:23.196Z,4.20
2018-09-19T07:52:26.302Z,4.40
2018-09-19T07:55:29.779Z,4.03
2018-09-19T07:58:32.877Z,4.07
2018-09-19T08:01:36.184Z,4.23
2018-09-19T08:04:39.371Z,4.10
2018-09-19T08:07:42.438Z,4.07
2018-09-19T08:10:45.701Z,4.33
2018-09-19T08:13:48.981Z,3.70
2018-09-19T08:16:52.317Z,2.73
2018-09-19T08:19:55.577Z,3.53
2018-09-19T08:22:58.753Z,2.90
2018-09-19T08:26:02.047Z,3.00
2018-09-19T08:29:05.333Z,3.03
2018-09-19T08:32:08.469Z,2.60
2018-09-19T08:35:11.614Z,3.00
2018-09-19T08:38:14.747Z,2.53
2018-09-19T08:41:18.197Z,3.37
2018-09-19T08:44:21.314Z,2.77
2018-09-19T08:47:24.537Z,2.90
2018-09-19T08:50:27.783Z,2.90
2018-09-19T08:53:30.927Z,3.23
2018-09-19T08:56:34.113Z,2.50
2018-09-19T08:59:38.380Z,3.30
2018-09-19T09:02:41.536Z,2.40
2018-09-19T09:05:44.771Z,3.07
2018-09-19T09:08:47.893Z,2.90
2018-09-19T09:11:51.037Z,2.10
2018-09-19T09:14:54.214Z,2.50
2018-09-19T09:17:57.358Z,2.60
2018-09-19T09:21:00.554Z,2.67
2018-09-19T09:24:03.900Z,2.37
2018-09-19T09:27:07.062Z,2.80
2018-09-19T09:30:10.411Z,1.87
2018-09-19T09:33:13.538Z,2.37
2018-09-19T09:36:16.720Z,2.40
2018-09-19T09:39:20.014Z,2.20
2018-09-19T09:42:23.062Z,2.63
2018-09-19T09:45:26.278Z,2.37
2018-09-19T09:48:29.430Z,2.70
2018-09-19T09:51:32.779Z,2.30
2018-09-19T09:54:36.084Z,2.70
2018-09-19T09:57:39.177Z,2.43
2018-09-19T10:00:42.814Z,2.20
2018-09-19T10:03:46.079Z,2.73
2018-09-19T10:06:49.301Z,2.30
2018-09-19T10:09:52.372Z,1.77
2018-09-19T10:12:55.514Z,2.20
2018-09-19T10:15:58.662Z,2.07
2018-09-19T10:19:01.865Z,2.00
2018-09-19T10:22:05.037Z,1.90
2018-09-19T10:25:08.279Z,2.07
2018-09-19T10:28:11.414Z,2.17
2018-09-19T10:31:14.550Z,2.33
2018-09-19T10:34:17.746Z,2.17
2018-09-19T10:37:20.972Z,2.10
2018-09-19T10:40:24.143Z,2.20
2018-09-19T10:43:27.341Z,2.47
2018-09-19T10:46:30.544Z,2.50
2018-09-19T10:49:33.725Z,2.00
2018-09-19T10:52:36.960Z,2.20
2018-09-19T10:55:40.024Z,2.00
2018-09-19T10:58:43.176Z,2.37
2018-09-19T11:01:46.271Z,1.90
2018-09-19T11:04:49.436Z,3.00
2018-09-19T11:07:52.713Z,2.00
2018-09-19T11:10:55.973Z,2.00
2018-09-19T11:13:59.109Z,1.87
2018-09-19T11:17:02.147Z,2.40
2018-09-19T11:20:05.381Z,2.07
2018-09-19T11:23:08.515Z,2.13
2018-09-19T11:26:11.675Z,1.97
2018-09-19T11:29:14.722Z,2.10
2018-09-19T11:32:17.824Z,2.13
2018-09-19T11:35:20.997Z,1.90
2018-09-19T11:38:24.086Z,2.23
2018-09-19T11:41:27.251Z,2.60
2018-09-19T11:44:30.481Z,2.63
2018-09-19T11:47:33.513Z,2.10
2018-09-19T11:50:36.606Z,2.00
2018-09-19T11:53:39.839Z,2.90
2018-09-19T11:56:42.998Z,2.33
2018-09-19T11:59:46.237Z,2.70
2018-09-19T12:02:49.490Z,2.23
2018-09-19T12:05:52.668Z,2.70
2018-09-19T12:08:55.855Z,2.40
2018-09-19T12:11:58.899Z,3.13
2018-09-19T12:15:02.209Z,2.70
2018-09-19T12:18:05.331Z,2.53
2018-09-19T12:21:08.508Z,2.60
2018-09-19T12:24:11.740Z,2.53
2018-09-19T12:27:14.841Z,2.20
2018-09-19T12:30:18.206Z,2.43
2018-09-19T12:33:21.367Z,2.40
2018-09-19T12:36:25.674Z,2.70
2018-09-19T12:39:28.874Z,2.33
2018-09-19T12:42:32.045Z,2.50
2018-09-19T12:45:35.205Z,2.73
2018-09-19T12:48:38.363Z,2.10
2018-09-19T12:51:41.545Z,2.27
2018-09-19T12:54:45.044Z,2.53
2018-09-19T12:57:48.170Z,2.73
2018-09-19T13:00:51.732Z,2.40
2018-09-19T13:03:54.843Z,2.60
2018-09-19T13:06:58.002Z,2.30
2018-09-19T13:10:01.246Z,2.43
2018-09-19T13:13:04.407Z,2.37
2018-09-19T13:16:07.702Z,2.47
2018-09-19T13:19:11.031Z,2.57
2018-09-19T13:22:14.201Z,2.23
2018-09-19T13:25:17.306Z,2.43
2018-09-19T13:28:20.318Z,2.53
2018-09-19T13:31:23.433Z,2.20
2018-09-19T13:34:26.618Z,2.40
2018-09-19T13:37:29.644Z,2.37
2018-09-19T13:40:32.775Z,2.43
2018-09-19T13:43:36.047Z,1.80
2018-09-19T13:46:39.351Z,2.17
2018-09-19T13:50:07.759Z,2.10
2018-09-19T13:53:11.113Z,2.30
2018-09-19T13:56:14.247Z,2.20
2018-09-19T13:59:18.396Z,2.10
2018-09-19T14:02:21.538Z,2.07
2018-09-19T14:05:24.601Z,2.60
2018-09-19T14:08:27.728Z,2.10
2018-09-19T14:11:30.951Z,2.03
2018-09-19T14:14:34.064Z,2.00
2018-09-19T14:17:37.480Z,2.20
2018-09-19T14:20:40.644Z,2.10
2018-09-19T14:23:43.798Z,1.80
2018-09-19T14:26:46.954Z,2.30
2018-09-19T14:29:50.155Z,1.80
2018-09-19T14:32:53.322Z,2.67
2018-09-19T14:35:56.456Z,2.20
2018-09-19T14:38:59.555Z,2.03
2018-09-19T14:42:02.824Z,1.90
2018-09-19T14:45:06.262Z,2.40
2018-09-19T14:48:09.482Z,2.60
2018-09-19T14:51:12.828Z,2.40
2018-09-19T14:54:15.984Z,2.27
2018-09-19T14:57:19.068Z,2.23
2018-09-19T15:00:22.267Z,2.50
2018-09-19T15:03:25.490Z,2.20
2018-09-19T15:06:28.726Z,2.50
2018-09-19T15:09:32.248Z,2.33
2018-09-19T15:12:35.359Z,2.60
2018-09-19T15:15:38.713Z,2.60
2018-09-19T15:18:41.795Z,2.97
2018-09-19T15:21:44.873Z,2.50
2018-09-19T15:24:48.051Z,2.47
2018-09-19T15:27:51.249Z,2.60
2018-09-19T15:30:54.499Z,2.30
2018-09-19T15:33:57.653Z,2.50
2018-09-19T15:37:00.818Z,2.83
2018-09-19T15:40:04.459Z,2.63
2018-09-19T15:43:07.611Z,2.47
2018-09-19T15:46:10.924Z,2.43
2018-09-19T15:49:14.251Z,2.80
2018-09-19T15:52:17.467Z,2.60
2018-09-19T15:55:20.654Z,2.90
2018-09-19T15:58:23.770Z,2.80
2018-09-19T16:01:27.023Z,2.70
2018-09-19T16:04:30.649Z,2.83
2018-09-19T16:07:34.706Z,2.80
2018-09-19T16:10:37.938Z,2.80
2018-09-19T16:13:41.176Z,2.63
2018-09-19T16:17:06.469Z,2.63
2018-09-19T16:20:09.965Z,2.33
2018-09-19T16:23:13.129Z,3.03
2018-09-19T16:26:16.305Z,2.70
2018-09-19T16:29:19.414Z,2.70
2018-09-19T16:32:22.582Z,3.90
2018-09-19T16:35:25.613Z,2.87
2018-09-19T16:38:28.692Z,2.77
2018-09-19T16:41:31.960Z,2.57
2018-09-19T16:44:35.291Z,2.40
2018-09-19T16:47:38.410Z,3.10
2018-09-19T16:50:41.533Z,2.60
2018-09-19T16:53:44.552Z,2.60
2018-09-19T16:56:47.850Z,2.40
2018-09-19T16:59:51.149Z,2.40
2018-09-19T17:02:54.464Z,2.53
2018-09-19T17:05:57.613Z,2.50
2018-09-19T17:09:00.954Z,2.17
2018-09-19T17:12:04.073Z,2.10
2018-09-19T17:15:07.239Z,2.40
2018-09-19T17:18:10.277Z,2.70
2018-09-19T17:21:13.390Z,2.47
2018-09-19T17:24:16.413Z,2.20
2018-09-19T17:27:19.701Z,2.50
2018-09-19T17:30:22.702Z,2.23
2018-09-19T17:33:25.798Z,2.53
2018-09-19T17:36:28.939Z,2.63
2018-09-19T17:39:32.053Z,2.47
2018-09-19T17:42:35.062Z,2.63
2018-09-19T17:45:38.062Z,2.50
2018-09-19T17:48:42.039Z,2.50
2018-09-19T17:51:45.320Z,2.70
2018-09-19T17:54:48.418Z,2.67
2018-09-19T17:57:51.679Z,2.30
2018-09-19T18:00:54.784Z,2.17
2018-09-19T18:03:57.953Z,2.93
2018-09-19T18:07:01.061Z,2.70
2018-09-19T18:10:04.387Z,2.50
2018-09-19T18:13:07.657Z,2.63
2018-09-19T18:16:11.293Z,2.83
2018-09-19T18:19:14.783Z,2.93
2018-09-19T18:22:18.229Z,2.70
2018-09-19T18:25:21.462Z,3.87
2018-09-19T18:28:25.571Z,4.13
2018-09-19T18:31:28.705Z,2.80
2018-09-19T18:34:31.841Z,2.40
2018-09-19T18:37:35.040Z,2.80
2018-09-19T18:40:38.294Z,2.67
2018-09-19T18:43:41.541Z,2.63
2018-09-19T18:46:44.770Z,2.90
2018-09-19T18:49:47.975Z,3.30
2018-09-19T18:52:51.198Z,2.90
2018-09-19T18:55:54.338Z,3.07
2018-09-19T18:58:57.707Z,3.23
2018-09-19T19:02:01.017Z,3.10
2018-09-19T19:05:04.407Z,2.83
2018-09-19T19:08:07.701Z,3.07
2018-09-19T19:11:11.018Z,2.70
2018-09-19T19:14:14.186Z,2.60
2018-09-19T19:17:17.519Z,2.77
2018-09-19T19:20:20.854Z,2.80
2018-09-19T19:23:24.750Z,3.17
2018-09-19T19:26:27.946Z,3.10
2018-09-19T19:29:31.177Z,3.33
2018-09-19T19:32:34.414Z,2.90
2018-09-19T19:35:37.605Z,2.93
2018-09-19T19:38:40.993Z,3.10
2018-09-19T19:41:44.289Z,3.30
2018-09-19T19:44:47.740Z,3.63
2018-09-19T19:47:50.829Z,3.00
2018-09-19T19:50:53.950Z,3.10
2018-09-19T19:53:57.123Z,3.77
2018-09-19T19:57:00.894Z,3.47
2018-09-19T20:00:04.254Z,3.27
2018-09-19T20:03:07.672Z,3.03
2018-09-19T20:06:10.789Z,3.10
2018-09-19T20:09:13.971Z,2.83
2018-09-19T20:12:17.244Z,2.50
2018-09-19T20:15:20.495Z,3.20
2018-09-19T20:18:23.671Z,2.73
2018-09-19T20:21:26.896Z,2.83
2018-09-19T20:24:30.134Z,2.80
2018-09-19T20:27:33.711Z,3.07
2018-09-19T20:30:36.948Z,2.93
2018-09-19T20:33:40.243Z,2.40
2018-09-19T20:36:43.398Z,3.00
2018-09-19T20:39:46.510Z,2.10
2018-09-19T20:42:49.590Z,2.63
2018-09-19T20:45:52.769Z,3.03
2018-09-19T20:48:55.920Z,3.57
2018-09-19T20:51:59.190Z,2.50
2018-09-19T20:55:02.328Z,3.00
2018-09-19T20:58:05.629Z,3.33
2018-09-19T21:01:08.860Z,3.23
2018-09-19T21:04:12.043Z,2.90
2018-09-19T21:07:15.201Z,3.17
2018-09-19T21:10:18.315Z,3.20
2018-09-19T21:13:21.489Z,3.03
2018-09-19T21:16:24.695Z,3.30
2018-09-19T21:19:27.901Z,3.30
2018-09-19T21:22:31.211Z,4.23
2018-09-19T21:25:34.277Z,3.70
2018-09-19T21:28:37.498Z,4.20
2018-09-19T21:31:41.080Z,3.40
2018-09-19T21:34:44.214Z,3.97
2018-09-19T21:37:47.290Z,4.10
2018-09-19T21:40:50.407Z,3.83
2018-09-19T21:43:53.366Z,4.80
2018-09-19T21:46:56.392Z,4.97
2018-09-19T21:49:59.497Z,5.53
2018-09-19T21:53:02.602Z,5.30
2018-09-19T21:56:05.803Z,4.97
2018-09-19T21:59:08.931Z,5.50
2018-09-19T22:02:12.101Z,4.77
2018-09-19T22:05:15.226Z,5.33
2018-09-19T22:08:18.338Z,4.77
2018-09-19T22:11:21.367Z,4.63
2018-09-19T22:14:24.461Z,4.83
2018-09-19T22:17:27.589Z,4.80
2018-09-19T22:20:30.713Z,5.17
2018-09-19T22:23:34.110Z,4.60
2018-09-19T22:26:37.319Z,4.90
2018-09-19T22:29:40.540Z,4.90
2018-09-19T22:32:43.906Z,4.90
2018-09-19T22:35:46.959Z,4.57
2018-09-19T22:38:49.986Z,4.90
2018-09-19T22:41:53.061Z,4.93
2018-09-19T22:44:56.134Z,4.90
2018-09-19T22:47:59.295Z,4.30
2018-09-19T22:51:02.430Z,4.13
2018-09-19T22:54:05.604Z,4.27
2018-09-19T22:57:08.768Z,4.27
2018-09-19T23:00:11.897Z,4.33
2018-09-19T23:03:15.097Z,4.90
2018-09-19T23:06:18.138Z,4.77
2018-09-19T23:09:21.245Z,4.73
2018-09-19T23:12:24.293Z,5.27
2018-09-19T23:15:27.490Z,4.17
2018-09-19T23:18:30.683Z,4.70
2018-09-19T23:21:33.773Z,4.13
2018-09-19T23:24:36.816Z,4.43
2018-09-19T23:27:40.283Z,5.17
2018-09-19T23:30:43.438Z,4.03
2018-09-19T23:33:46.608Z,4.47
2018-09-19T23:36:49.898Z,5.13
2018-09-19T23:39:53.036Z,4.43
2018-09-19T23:42:56.355Z,4.83
2018-09-19T23:46:00.481Z,4.70
2018-09-19T23:49:03.558Z,4.73
2018-09-19T23:52:06.895Z,4.77
2018-09-19T23:55:10.019Z,4.43
2018-09-19T23:58:13.239Z,5.83
